sensor_id;sensor_type;location;lat;lon;timestamp;P1;durP1;ratioP1;P2;durP2;ratioP2
7971;SDS011;4031;49.758;6.120;2022-08-19T00:00:46;11.20;;;8.90;;
7971;SDS011;4031;49.758;6.120;2022-08-19T00:03:12;13.50;;;9.73;;
7971;SDS011;4031;49.758;6.120;2022-08-19T00:05:38;16.43;;;9.87;;
7971;SDS011;4031;49.758;6.120;2022-08-19T00:08:05;11.50;;;10.27;;
7971;SDS011;4031;49.758;6.120;2022-08-19T00:10:31;12.67;;;9.80;;
7971;SDS011;4031;49.758;6.120;2022-08-19T00:12:57;10.73;;;9.37;;
7971;SDS011;4031;49.758;6.120;2022-08-19T00:15:22;14.10;;;10.20;;
7971;SDS011;4031;49.758;6.120;2022-08-19T00:17:48;14.33;;;9.90;;
7971;SDS011;4031;49.758;6.120;2022-08-19T00:20:16;11.90;;;10.27;;
7971;SDS011;4031;49.758;6.120;2022-08-19T00:22:45;11.50;;;9.40;;
7971;SDS011;4031;49.758;6.120;2022-08-19T00:25:12;17.20;;;10.10;;
7971;SDS011;4031;49.758;6.120;2022-08-19T00:27:39;13.57;;;10.10;;
7971;SDS011;4031;49.758;6.120;2022-08-19T00:30:05;12.57;;;10.40;;
7971;SDS011;4031;49.758;6.120;2022-08-19T00:32:32;11.47;;;10.27;;
7971;SDS011;4031;49.758;6.120;2022-08-19T00:34:59;14.83;;;10.80;;
7971;SDS011;4031;49.758;6.120;2022-08-19T00:37:26;14.10;;;10.23;;
7971;SDS011;4031;49.758;6.120;2022-08-19T00:39:52;13.00;;;10.53;;
7971;SDS011;4031;49.758;6.120;2022-08-19T00:42:19;13.53;;;10.57;;
7971;SDS011;4031;49.758;6.120;2022-08-19T00:44:46;14.63;;;10.37;;
7971;SDS011;4031;49.758;6.120;2022-08-19T00:47:12;15.23;;;11.17;;
7971;SDS011;4031;49.758;6.120;2022-08-19T00:49:43;15.60;;;10.83;;
7971;SDS011;4031;49.758;6.120;2022-08-19T00:55:16;12.10;;;10.00;;
7971;SDS011;4031;49.758;6.120;2022-08-19T00:57:48;14.23;;;10.17;;
7971;SDS011;4031;49.758;6.120;2022-08-19T01:00:22;15.20;;;11.20;;
7971;SDS011;4031;49.758;6.120;2022-08-19T01:02:50;15.30;;;11.00;;
7971;SDS011;4031;49.758;6.120;2022-08-19T01:05:20;14.97;;;11.10;;
7971;SDS011;4031;49.758;6.120;2022-08-19T01:07:50;14.73;;;11.60;;
7971;SDS011;4031;49.758;6.120;2022-08-19T01:10:18;16.67;;;12.70;;
7971;SDS011;4031;49.758;6.120;2022-08-19T01:12:49;16.03;;;12.10;;
7971;SDS011;4031;49.758;6.120;2022-08-19T01:15:21;15.13;;;11.87;;
7971;SDS011;4031;49.758;6.120;2022-08-19T01:17:52;15.63;;;10.87;;
7971;SDS011;4031;49.758;6.120;2022-08-19T01:20:20;15.63;;;10.77;;
7971;SDS011;4031;49.758;6.120;2022-08-19T01:25:17;14.23;;;11.50;;
7971;SDS011;4031;49.758;6.120;2022-08-19T01:27:48;16.57;;;11.47;;
7971;SDS011;4031;49.758;6.120;2022-08-19T01:30:19;15.63;;;11.73;;
7971;SDS011;4031;49.758;6.120;2022-08-19T01:32:50;14.53;;;11.63;;
7971;SDS011;4031;49.758;6.120;2022-08-19T01:35:18;16.00;;;11.83;;
7971;SDS011;4031;49.758;6.120;2022-08-19T01:37:56;22.30;;;11.70;;
7971;SDS011;4031;49.758;6.120;2022-08-19T01:40:28;13.80;;;10.97;;
7971;SDS011;4031;49.758;6.120;2022-08-19T01:42:56;20.87;;;12.30;;
7971;SDS011;4031;49.758;6.120;2022-08-19T01:45:23;13.57;;;11.13;;
7971;SDS011;4031;49.758;6.120;2022-08-19T01:47:51;16.03;;;10.77;;
7971;SDS011;4031;49.758;6.120;2022-08-19T01:50:18;18.37;;;13.53;;
7971;SDS011;4031;49.758;6.120;2022-08-19T01:52:45;15.97;;;10.60;;
7971;SDS011;4031;49.758;6.120;2022-08-19T01:55:13;16.13;;;12.20;;
7971;SDS011;4031;49.758;6.120;2022-08-19T01:57:44;14.50;;;11.57;;
7971;SDS011;4031;49.758;6.120;2022-08-19T02:00:17;18.90;;;11.90;;
7971;SDS011;4031;49.758;6.120;2022-08-19T02:02:45;16.50;;;12.53;;
7971;SDS011;4031;49.758;6.120;2022-08-19T02:05:11;17.23;;;13.10;;
7971;SDS011;4031;49.758;6.120;2022-08-19T02:07:38;16.50;;;12.50;;
7971;SDS011;4031;49.758;6.120;2022-08-19T02:10:10;15.60;;;11.80;;
7971;SDS011;4031;49.758;6.120;2022-08-19T02:12:40;18.43;;;12.33;;
7971;SDS011;4031;49.758;6.120;2022-08-19T02:15:06;16.80;;;11.37;;
7971;SDS011;4031;49.758;6.120;2022-08-19T02:17:32;17.53;;;11.70;;
7971;SDS011;4031;49.758;6.120;2022-08-19T02:19:59;15.37;;;11.67;;
7971;SDS011;4031;49.758;6.120;2022-08-19T02:22:25;21.03;;;13.37;;
7971;SDS011;4031;49.758;6.120;2022-08-19T02:24:52;14.07;;;11.20;;
7971;SDS011;4031;49.758;6.120;2022-08-19T02:27:18;17.03;;;12.37;;
7971;SDS011;4031;49.758;6.120;2022-08-19T02:29:46;17.93;;;12.87;;
7971;SDS011;4031;49.758;6.120;2022-08-19T02:32:14;16.47;;;12.53;;
7971;SDS011;4031;49.758;6.120;2022-08-19T02:34:40;14.17;;;11.67;;
7971;SDS011;4031;49.758;6.120;2022-08-19T02:37:06;15.43;;;11.33;;
7971;SDS011;4031;49.758;6.120;2022-08-19T02:39:52;15.73;;;11.20;;
7971;SDS011;4031;49.758;6.120;2022-08-19T02:42:18;15.83;;;11.87;;
7971;SDS011;4031;49.758;6.120;2022-08-19T02:44:44;17.17;;;11.97;;
7971;SDS011;4031;49.758;6.120;2022-08-19T02:47:10;16.63;;;12.53;;
7971;SDS011;4031;49.758;6.120;2022-08-19T02:49:35;14.90;;;10.80;;
7971;SDS011;4031;49.758;6.120;2022-08-19T02:52:02;17.27;;;12.43;;
7971;SDS011;4031;49.758;6.120;2022-08-19T02:54:28;14.47;;;11.77;;
7971;SDS011;4031;49.758;6.120;2022-08-19T02:56:54;20.53;;;12.20;;
7971;SDS011;4031;49.758;6.120;2022-08-19T02:59:19;15.10;;;11.27;;
7971;SDS011;4031;49.758;6.120;2022-08-19T03:01:46;20.23;;;14.37;;
7971;SDS011;4031;49.758;6.120;2022-08-19T03:04:13;15.23;;;11.10;;
7971;SDS011;4031;49.758;6.120;2022-08-19T03:06:41;18.10;;;11.90;;
7971;SDS011;4031;49.758;6.120;2022-08-19T03:09:10;17.93;;;11.13;;
7971;SDS011;4031;49.758;6.120;2022-08-19T03:11:36;16.73;;;12.43;;
7971;SDS011;4031;49.758;6.120;2022-08-19T03:14:03;19.20;;;12.90;;
7971;SDS011;4031;49.758;6.120;2022-08-19T03:16:31;17.70;;;13.53;;
7971;SDS011;4031;49.758;6.120;2022-08-19T03:19:00;18.73;;;12.83;;
7971;SDS011;4031;49.758;6.120;2022-08-19T03:21:27;14.80;;;11.97;;
7971;SDS011;4031;49.758;6.120;2022-08-19T03:23:57;19.30;;;13.10;;
7971;SDS011;4031;49.758;6.120;2022-08-19T03:26:28;17.03;;;13.23;;
7971;SDS011;4031;49.758;6.120;2022-08-19T03:28:54;15.83;;;12.53;;
7971;SDS011;4031;49.758;6.120;2022-08-19T03:31:21;17.70;;;11.10;;
7971;SDS011;4031;49.758;6.120;2022-08-19T03:33:49;19.00;;;14.20;;
7971;SDS011;4031;49.758;6.120;2022-08-19T03:36:17;17.77;;;13.27;;
7971;SDS011;4031;49.758;6.120;2022-08-19T03:38:50;17.80;;;11.70;;
7971;SDS011;4031;49.758;6.120;2022-08-19T03:41:21;17.70;;;12.27;;
7971;SDS011;4031;49.758;6.120;2022-08-19T03:43:53;18.10;;;13.70;;
7971;SDS011;4031;49.758;6.120;2022-08-19T03:46:20;21.57;;;14.10;;
7971;SDS011;4031;49.758;6.120;2022-08-19T03:48:53;18.93;;;12.40;;
7971;SDS011;4031;49.758;6.120;2022-08-19T03:51:23;18.10;;;12.17;;
7971;SDS011;4031;49.758;6.120;2022-08-19T03:53:55;19.63;;;13.00;;
7971;SDS011;4031;49.758;6.120;2022-08-19T03:56:23;16.90;;;12.60;;
7971;SDS011;4031;49.758;6.120;2022-08-19T03:58:52;16.67;;;12.17;;
7971;SDS011;4031;49.758;6.120;2022-08-19T04:01:22;15.90;;;11.60;;
7971;SDS011;4031;49.758;6.120;2022-08-19T04:03:51;20.23;;;13.83;;
7971;SDS011;4031;49.758;6.120;2022-08-19T04:06:19;19.57;;;13.87;;
7971;SDS011;4031;49.758;6.120;2022-08-19T04:08:49;20.20;;;12.80;;
7971;SDS011;4031;49.758;6.120;2022-08-19T04:11:21;16.30;;;13.43;;
7971;SDS011;4031;49.758;6.120;2022-08-19T04:13:50;20.17;;;14.57;;
7971;SDS011;4031;49.758;6.120;2022-08-19T04:16:18;20.90;;;13.67;;
7971;SDS011;4031;49.758;6.120;2022-08-19T04:18:46;18.60;;;13.63;;
7971;SDS011;4031;49.758;6.120;2022-08-19T04:21:23;23.77;;;14.57;;
7971;SDS011;4031;49.758;6.120;2022-08-19T04:23:51;17.20;;;13.10;;
7971;SDS011;4031;49.758;6.120;2022-08-19T04:26:18;17.60;;;13.10;;
7971;SDS011;4031;49.758;6.120;2022-08-19T04:28:59;19.57;;;14.20;;
7971;SDS011;4031;49.758;6.120;2022-08-19T04:31:27;20.90;;;14.10;;
7971;SDS011;4031;49.758;6.120;2022-08-19T04:33:58;19.53;;;15.33;;
7971;SDS011;4031;49.758;6.120;2022-08-19T04:36:28;20.97;;;14.17;;
7971;SDS011;4031;49.758;6.120;2022-08-19T04:38:57;22.80;;;14.20;;
7971;SDS011;4031;49.758;6.120;2022-08-19T04:41:26;22.10;;;15.00;;
7971;SDS011;4031;49.758;6.120;2022-08-19T04:44:11;22.23;;;15.17;;
7971;SDS011;4031;49.758;6.120;2022-08-19T04:46:38;21.30;;;13.43;;
7971;SDS011;4031;49.758;6.120;2022-08-19T04:49:04;22.80;;;14.30;;
7971;SDS011;4031;49.758;6.120;2022-08-19T04:51:34;23.77;;;15.77;;
7971;SDS011;4031;49.758;6.120;2022-08-19T04:54:03;19.30;;;14.13;;
7971;SDS011;4031;49.758;6.120;2022-08-19T04:56:29;22.93;;;15.20;;
7971;SDS011;4031;49.758;6.120;2022-08-19T04:58:55;23.97;;;15.77;;
7971;SDS011;4031;49.758;6.120;2022-08-19T05:01:28;23.80;;;13.40;;
7971;SDS011;4031;49.758;6.120;2022-08-19T05:03:56;23.90;;;15.83;;
7971;SDS011;4031;49.758;6.120;2022-08-19T05:06:25;20.90;;;13.93;;
7971;SDS011;4031;49.758;6.120;2022-08-19T05:08:51;23.50;;;16.33;;
7971;SDS011;4031;49.758;6.120;2022-08-19T05:11:21;24.97;;;16.03;;
7971;SDS011;4031;49.758;6.120;2022-08-19T05:13:50;20.67;;;14.60;;
7971;SDS011;4031;49.758;6.120;2022-08-19T05:16:17;19.67;;;14.47;;
7971;SDS011;4031;49.758;6.120;2022-08-19T05:18:45;21.00;;;14.60;;
7971;SDS011;4031;49.758;6.120;2022-08-19T05:21:31;17.00;;;13.43;;
7971;SDS011;4031;49.758;6.120;2022-08-19T05:24:17;19.77;;;14.20;;
7971;SDS011;4031;49.758;6.120;2022-08-19T05:26:44;15.73;;;12.50;;
7971;SDS011;4031;49.758;6.120;2022-08-19T05:29:14;20.17;;;13.47;;
7971;SDS011;4031;49.758;6.120;2022-08-19T05:31:42;18.27;;;13.83;;
7971;SDS011;4031;49.758;6.120;2022-08-19T05:34:08;20.93;;;15.33;;
7971;SDS011;4031;49.758;6.120;2022-08-19T05:36:37;23.53;;;16.33;;
7971;SDS011;4031;49.758;6.120;2022-08-19T05:39:09;20.07;;;14.13;;
7971;SDS011;4031;49.758;6.120;2022-08-19T05:41:42;21.77;;;15.77;;
7971;SDS011;4031;49.758;6.120;2022-08-19T05:44:14;25.83;;;16.47;;
7971;SDS011;4031;49.758;6.120;2022-08-19T05:46:42;23.23;;;14.57;;
7971;SDS011;4031;49.758;6.120;2022-08-19T05:49:11;25.80;;;15.10;;
7971;SDS011;4031;49.758;6.120;2022-08-19T05:51:38;23.27;;;16.17;;
7971;SDS011;4031;49.758;6.120;2022-08-19T05:54:05;18.17;;;13.50;;
7971;SDS011;4031;49.758;6.120;2022-08-19T05:56:32;18.35;;;13.65;;
7971;SDS011;4031;49.758;6.120;2022-08-19T05:59:01;19.37;;;14.27;;
7971;SDS011;4031;49.758;6.120;2022-08-19T06:01:27;17.43;;;13.33;;
7971;SDS011;4031;49.758;6.120;2022-08-19T06:03:53;20.30;;;13.83;;
7971;SDS011;4031;49.758;6.120;2022-08-19T06:06:19;15.60;;;12.20;;
7971;SDS011;4031;49.758;6.120;2022-08-19T06:08:45;15.80;;;11.40;;
7971;SDS011;4031;49.758;6.120;2022-08-19T06:13:50;22.83;;;14.57;;
7971;SDS011;4031;49.758;6.120;2022-08-19T06:16:18;18.50;;;14.00;;
7971;SDS011;4031;49.758;6.120;2022-08-19T06:18:47;18.53;;;13.67;;
7971;SDS011;4031;49.758;6.120;2022-08-19T06:21:26;20.60;;;14.40;;
7971;SDS011;4031;49.758;6.120;2022-08-19T06:23:54;19.03;;;14.43;;
7971;SDS011;4031;49.758;6.120;2022-08-19T06:26:21;16.70;;;13.93;;
7971;SDS011;4031;49.758;6.120;2022-08-19T06:28:49;17.67;;;14.27;;
7971;SDS011;4031;49.758;6.120;2022-08-19T06:31:16;18.10;;;12.60;;
7971;SDS011;4031;49.758;6.120;2022-08-19T06:33:45;15.77;;;13.60;;
7971;SDS011;4031;49.758;6.120;2022-08-19T06:36:22;15.90;;;12.77;;
7971;SDS011;4031;49.758;6.120;2022-08-19T06:38:56;16.53;;;13.30;;
7971;SDS011;4031;49.758;6.120;2022-08-19T06:41:24;15.30;;;13.30;;
7971;SDS011;4031;49.758;6.120;2022-08-19T06:43:51;15.03;;;13.40;;
7971;SDS011;4031;49.758;6.120;2022-08-19T06:46:17;17.10;;;14.00;;
7971;SDS011;4031;49.758;6.120;2022-08-19T06:48:44;16.80;;;12.80;;
7971;SDS011;4031;49.758;6.120;2022-08-19T06:51:12;15.53;;;13.80;;
7971;SDS011;4031;49.758;6.120;2022-08-19T06:53:43;16.40;;;13.00;;
7971;SDS011;4031;49.758;6.120;2022-08-19T06:56:12;16.33;;;14.63;;
7971;SDS011;4031;49.758;6.120;2022-08-19T06:58:43;14.83;;;13.20;;
7971;SDS011;4031;49.758;6.120;2022-08-19T07:01:09;16.83;;;15.27;;
7971;SDS011;4031;49.758;6.120;2022-08-19T07:03:36;16.50;;;14.20;;
7971;SDS011;4031;49.758;6.120;2022-08-19T07:06:04;17.20;;;15.40;;
7971;SDS011;4031;49.758;6.120;2022-08-19T07:08:32;16.00;;;14.37;;
7971;SDS011;4031;49.758;6.120;2022-08-19T07:11:01;16.30;;;14.70;;
7971;SDS011;4031;49.758;6.120;2022-08-19T07:13:31;16.23;;;14.53;;
7971;SDS011;4031;49.758;6.120;2022-08-19T07:16:04;16.47;;;14.70;;
7971;SDS011;4031;49.758;6.120;2022-08-19T07:18:33;17.13;;;15.33;;
7971;SDS011;4031;49.758;6.120;2022-08-19T07:21:07;17.60;;;15.73;;
7971;SDS011;4031;49.758;6.120;2022-08-19T07:23:43;15.53;;;14.00;;
7971;SDS011;4031;49.758;6.120;2022-08-19T07:26:11;15.57;;;13.97;;
7971;SDS011;4031;49.758;6.120;2022-08-19T07:28:37;18.17;;;16.27;;
7971;SDS011;4031;49.758;6.120;2022-08-19T07:31:05;18.63;;;16.73;;
7971;SDS011;4031;49.758;6.120;2022-08-19T07:33:37;16.80;;;15.10;;
7971;SDS011;4031;49.758;6.120;2022-08-19T07:36:04;18.57;;;15.83;;
7971;SDS011;4031;49.758;6.120;2022-08-19T07:38:32;21.00;;;15.47;;
7971;SDS011;4031;49.758;6.120;2022-08-19T07:40:59;16.20;;;14.50;;
7971;SDS011;4031;49.758;6.120;2022-08-19T07:43:26;18.83;;;17.00;;
7971;SDS011;4031;49.758;6.120;2022-08-19T07:45:53;17.77;;;16.03;;
7971;SDS011;4031;49.758;6.120;2022-08-19T07:48:23;18.33;;;16.20;;
7971;SDS011;4031;49.758;6.120;2022-08-19T07:50:56;19.20;;;17.20;;
7971;SDS011;4031;49.758;6.120;2022-08-19T07:53:26;18.40;;;15.40;;
7971;SDS011;4031;49.758;6.120;2022-08-19T07:55:53;17.57;;;15.57;;
7971;SDS011;4031;49.758;6.120;2022-08-19T07:58:20;16.40;;;14.23;;
7971;SDS011;4031;49.758;6.120;2022-08-19T08:00:48;17.60;;;15.43;;
7971;SDS011;4031;49.758;6.120;2022-08-19T08:03:16;16.20;;;14.50;;
7971;SDS011;4031;49.758;6.120;2022-08-19T08:05:45;14.90;;;13.57;;
7971;SDS011;4031;49.758;6.120;2022-08-19T08:08:30;15.80;;;14.27;;
7971;SDS011;4031;49.758;6.120;2022-08-19T08:10:56;17.53;;;15.63;;
7971;SDS011;4031;49.758;6.120;2022-08-19T08:13:22;17.27;;;15.60;;
7971;SDS011;4031;49.758;6.120;2022-08-19T08:15:49;16.50;;;14.90;;
7971;SDS011;4031;49.758;6.120;2022-08-19T08:18:15;18.57;;;15.00;;
7971;SDS011;4031;49.758;6.120;2022-08-19T08:20:40;16.70;;;15.00;;
7971;SDS011;4031;49.758;6.120;2022-08-19T08:23:06;16.07;;;14.57;;
7971;SDS011;4031;49.758;6.120;2022-08-19T08:25:48;14.70;;;13.40;;
7971;SDS011;4031;49.758;6.120;2022-08-19T08:28:14;17.57;;;15.87;;
7971;SDS011;4031;49.758;6.120;2022-08-19T08:30:42;17.63;;;15.87;;
7971;SDS011;4031;49.758;6.120;2022-08-19T08:33:09;16.93;;;15.40;;
7971;SDS011;4031;49.758;6.120;2022-08-19T08:35:35;16.60;;;15.00;;
7971;SDS011;4031;49.758;6.120;2022-08-19T08:38:01;16.87;;;15.30;;
7971;SDS011;4031;49.758;6.120;2022-08-19T08:43:22;16.47;;;14.77;;
7971;SDS011;4031;49.758;6.120;2022-08-19T08:46:01;15.93;;;14.43;;
7971;SDS011;4031;49.758;6.120;2022-08-19T08:48:42;15.77;;;14.27;;
7971;SDS011;4031;49.758;6.120;2022-08-19T08:51:18;14.60;;;13.17;;
7971;SDS011;4031;49.758;6.120;2022-08-19T08:53:51;17.60;;;15.50;;
7971;SDS011;4031;49.758;6.120;2022-08-19T08:56:18;15.87;;;14.37;;
7971;SDS011;4031;49.758;6.120;2022-08-19T08:59:01;16.63;;;15.03;;
7971;SDS011;4031;49.758;6.120;2022-08-19T09:01:33;14.10;;;12.90;;
7971;SDS011;4031;49.758;6.120;2022-08-19T09:04:02;16.30;;;14.70;;
7971;SDS011;4031;49.758;6.120;2022-08-19T09:09:30;17.10;;;15.50;;
7971;SDS011;4031;49.758;6.120;2022-08-19T09:12:11;18.90;;;15.43;;
7971;SDS011;4031;49.758;6.120;2022-08-19T09:15:06;15.63;;;14.13;;
7971;SDS011;4031;49.758;6.120;2022-08-19T09:17:35;14.60;;;13.40;;
7971;SDS011;4031;49.758;6.120;2022-08-19T09:22:38;12.70;;;11.50;;
7971;SDS011;4031;49.758;6.120;2022-08-19T09:25:09;14.47;;;13.00;;
7971;SDS011;4031;49.758;6.120;2022-08-19T09:27:38;13.20;;;11.90;;
7971;SDS011;4031;49.758;6.120;2022-08-19T09:30:06;15.20;;;13.30;;
7971;SDS011;4031;49.758;6.120;2022-08-19T09:32:36;13.83;;;11.93;;
7971;SDS011;4031;49.758;6.120;2022-08-19T09:35:04;13.03;;;11.73;;
7971;SDS011;4031;49.758;6.120;2022-08-19T09:37:31;13.20;;;12.00;;
7971;SDS011;4031;49.758;6.120;2022-08-19T09:39:56;13.60;;;12.30;;
7971;SDS011;4031;49.758;6.120;2022-08-19T09:42:22;13.43;;;12.03;;
7971;SDS011;4031;49.758;6.120;2022-08-19T09:44:48;13.50;;;12.20;;
7971;SDS011;4031;49.758;6.120;2022-08-19T09:47:14;13.67;;;12.37;;
7971;SDS011;4031;49.758;6.120;2022-08-19T09:49:40;10.13;;;9.23;;
7971;SDS011;4031;49.758;6.120;2022-08-19T09:52:10;15.50;;;13.80;;
7971;SDS011;4031;49.758;6.120;2022-08-19T09:54:39;14.23;;;12.83;;
7971;SDS011;4031;49.758;6.120;2022-08-19T09:57:05;14.73;;;12.90;;
7971;SDS011;4031;49.758;6.120;2022-08-19T09:59:31;13.57;;;12.17;;
7971;SDS011;4031;49.758;6.120;2022-08-19T10:01:57;13.73;;;12.27;;
7971;SDS011;4031;49.758;6.120;2022-08-19T10:04:23;13.70;;;12.40;;
7971;SDS011;4031;49.758;6.120;2022-08-19T10:07:09;13.87;;;12.47;;
7971;SDS011;4031;49.758;6.120;2022-08-19T10:09:35;15.37;;;13.87;;
7971;SDS011;4031;49.758;6.120;2022-08-19T10:12:01;15.10;;;13.60;;
7971;SDS011;4031;49.758;6.120;2022-08-19T10:14:29;15.13;;;13.63;;
7971;SDS011;4031;49.758;6.120;2022-08-19T10:16:56;15.20;;;13.23;;
7971;SDS011;4031;49.758;6.120;2022-08-19T10:19:22;14.90;;;13.40;;
7971;SDS011;4031;49.758;6.120;2022-08-19T10:21:47;13.63;;;12.33;;
7971;SDS011;4031;49.758;6.120;2022-08-19T10:24:13;13.07;;;11.87;;
7971;SDS011;4031;49.758;6.120;2022-08-19T10:26:40;12.20;;;11.00;;
7971;SDS011;4031;49.758;6.120;2022-08-19T10:29:12;12.93;;;11.70;;
7971;SDS011;4031;49.758;6.120;2022-08-19T10:31:40;12.67;;;11.27;;
7971;SDS011;4031;49.758;6.120;2022-08-19T10:34:07;13.13;;;11.83;;
7971;SDS011;4031;49.758;6.120;2022-08-19T10:36:35;13.30;;;12.10;;
7971;SDS011;4031;49.758;6.120;2022-08-19T10:39:06;18.00;;;10.73;;
7971;SDS011;4031;49.758;6.120;2022-08-19T10:41:35;14.40;;;11.50;;
7971;SDS011;4031;49.758;6.120;2022-08-19T10:44:07;13.10;;;10.43;;
7971;SDS011;4031;49.758;6.120;2022-08-19T10:46:36;11.67;;;10.47;;
7971;SDS011;4031;49.758;6.120;2022-08-19T10:49:06;12.97;;;11.67;;
7971;SDS011;4031;49.758;6.120;2022-08-19T10:51:34;14.37;;;10.50;;
7971;SDS011;4031;49.758;6.120;2022-08-19T10:54:19;13.63;;;12.20;;
7971;SDS011;4031;49.758;6.120;2022-08-19T10:56:45;13.70;;;12.33;;
7971;SDS011;4031;49.758;6.120;2022-08-19T10:59:27;14.10;;;12.13;;
7971;SDS011;4031;49.758;6.120;2022-08-19T11:01:58;12.70;;;11.37;;
7971;SDS011;4031;49.758;6.120;2022-08-19T11:04:25;11.93;;;10.23;;
7971;SDS011;4031;49.758;6.120;2022-08-19T11:06:51;10.60;;;9.53;;
7971;SDS011;4031;49.758;6.120;2022-08-19T11:09:18;9.93;;;8.93;;
7971;SDS011;4031;49.758;6.120;2022-08-19T11:11:50;9.57;;;8.70;;
7971;SDS011;4031;49.758;6.120;2022-08-19T11:14:18;10.03;;;9.03;;
7971;SDS011;4031;49.758;6.120;2022-08-19T11:16:46;9.37;;;8.47;;
7971;SDS011;4031;49.758;6.120;2022-08-19T11:19:13;12.13;;;10.70;;
7971;SDS011;4031;49.758;6.120;2022-08-19T11:21:42;11.23;;;10.13;;
7971;SDS011;4031;49.758;6.120;2022-08-19T11:24:12;10.80;;;9.87;;
7971;SDS011;4031;49.758;6.120;2022-08-19T11:26:42;7.90;;;7.07;;
7971;SDS011;4031;49.758;6.120;2022-08-19T11:29:09;7.50;;;6.80;;
7971;SDS011;4031;49.758;6.120;2022-08-19T11:31:39;7.90;;;7.10;;
7971;SDS011;4031;49.758;6.120;2022-08-19T11:34:09;6.60;;;6.00;;
7971;SDS011;4031;49.758;6.120;2022-08-19T11:36:38;6.63;;;6.10;;
7971;SDS011;4031;49.758;6.120;2022-08-19T11:39:07;7.53;;;6.63;;
7971;SDS011;4031;49.758;6.120;2022-08-19T11:41:35;7.50;;;6.53;;
7971;SDS011;4031;49.758;6.120;2022-08-19T11:44:00;7.30;;;6.60;;
7971;SDS011;4031;49.758;6.120;2022-08-19T11:46:28;7.80;;;7.10;;
7971;SDS011;4031;49.758;6.120;2022-08-19T11:48:54;7.60;;;6.80;;
7971;SDS011;4031;49.758;6.120;2022-08-19T11:51:21;7.80;;;7.00;;
7971;SDS011;4031;49.758;6.120;2022-08-19T11:53:50;6.83;;;6.17;;
7971;SDS011;4031;49.758;6.120;2022-08-19T11:56:18;6.30;;;5.70;;
7971;SDS011;4031;49.758;6.120;2022-08-19T11:58:44;8.00;;;7.20;;
7971;SDS011;4031;49.758;6.120;2022-08-19T12:01:11;8.10;;;7.30;;
7971;SDS011;4031;49.758;6.120;2022-08-19T12:03:41;6.40;;;5.80;;
7971;SDS011;4031;49.758;6.120;2022-08-19T12:06:09;6.23;;;5.70;;
7971;SDS011;4031;49.758;6.120;2022-08-19T12:08:40;5.50;;;4.93;;
7971;SDS011;4031;49.758;6.120;2022-08-19T12:11:08;7.70;;;6.33;;
7971;SDS011;4031;49.758;6.120;2022-08-19T12:13:35;6.73;;;6.10;;
7971;SDS011;4031;49.758;6.120;2022-08-19T12:16:08;8.10;;;6.57;;
7971;SDS011;4031;49.758;6.120;2022-08-19T12:18:38;6.03;;;5.43;;
7971;SDS011;4031;49.758;6.120;2022-08-19T12:21:07;5.80;;;4.70;;
7971;SDS011;4031;49.758;6.120;2022-08-19T12:23:35;6.30;;;5.70;;
7971;SDS011;4031;49.758;6.120;2022-08-19T12:26:02;6.70;;;6.00;;
7971;SDS011;4031;49.758;6.120;2022-08-19T12:28:29;7.00;;;6.10;;
7971;SDS011;4031;49.758;6.120;2022-08-19T12:30:55;12.03;;;7.40;;
7971;SDS011;4031;49.758;6.120;2022-08-19T12:33:21;7.50;;;6.53;;
7971;SDS011;4031;49.758;6.120;2022-08-19T12:35:50;9.30;;;6.70;;
7971;SDS011;4031;49.758;6.120;2022-08-19T12:38:17;8.07;;;6.27;;
7971;SDS011;4031;49.758;6.120;2022-08-19T12:40:47;7.40;;;5.40;;
7971;SDS011;4031;49.758;6.120;2022-08-19T12:43:14;7.70;;;5.37;;
7971;SDS011;4031;49.758;6.120;2022-08-19T12:45:41;7.30;;;6.03;;
7971;SDS011;4031;49.758;6.120;2022-08-19T12:48:07;5.00;;;4.50;;
7971;SDS011;4031;49.758;6.120;2022-08-19T12:50:33;5.23;;;4.33;;
7971;SDS011;4031;49.758;6.120;2022-08-19T12:52:59;5.47;;;3.93;;
7971;SDS011;4031;49.758;6.120;2022-08-19T12:55:25;4.47;;;4.07;;
7971;SDS011;4031;49.758;6.120;2022-08-19T12:57:53;3.67;;;3.30;;
7971;SDS011;4031;49.758;6.120;2022-08-19T13:00:20;4.30;;;3.83;;
7971;SDS011;4031;49.758;6.120;2022-08-19T13:02:50;3.63;;;3.33;;
7971;SDS011;4031;49.758;6.120;2022-08-19T13:05:22;3.30;;;3.00;;
7971;SDS011;4031;49.758;6.120;2022-08-19T13:07:51;3.37;;;3.00;;
7971;SDS011;4031;49.758;6.120;2022-08-19T13:10:21;2.80;;;2.60;;
7971;SDS011;4031;49.758;6.120;2022-08-19T13:12:50;3.30;;;2.67;;
7971;SDS011;4031;49.758;6.120;2022-08-19T13:15:18;2.40;;;2.20;;
7971;SDS011;4031;49.758;6.120;2022-08-19T13:17:46;3.50;;;2.27;;
7971;SDS011;4031;49.758;6.120;2022-08-19T13:20:14;3.20;;;2.00;;
7971;SDS011;4031;49.758;6.120;2022-08-19T13:22:42;2.10;;;1.90;;
7971;SDS011;4031;49.758;6.120;2022-08-19T13:25:09;2.30;;;1.93;;
7971;SDS011;4031;49.758;6.120;2022-08-19T13:27:37;2.43;;;1.87;;
7971;SDS011;4031;49.758;6.120;2022-08-19T13:30:05;1.70;;;1.50;;
7971;SDS011;4031;49.758;6.120;2022-08-19T13:33:03;2.63;;;1.80;;
7971;SDS011;4031;49.758;6.120;2022-08-19T13:35:36;2.00;;;1.80;;
7971;SDS011;4031;49.758;6.120;2022-08-19T13:38:03;1.70;;;1.30;;
7971;SDS011;4031;49.758;6.120;2022-08-19T13:40:31;2.47;;;1.70;;
7971;SDS011;4031;49.758;6.120;2022-08-19T13:42:58;2.13;;;1.50;;
7971;SDS011;4031;49.758;6.120;2022-08-19T13:45:26;2.43;;;1.90;;
7971;SDS011;4031;49.758;6.120;2022-08-19T13:47:54;2.70;;;1.43;;
7971;SDS011;4031;49.758;6.120;2022-08-19T13:50:23;1.63;;;1.50;;
7971;SDS011;4031;49.758;6.120;2022-08-19T13:52:52;1.20;;;1.07;;
7971;SDS011;4031;49.758;6.120;2022-08-19T13:55:20;1.23;;;1.10;;
7971;SDS011;4031;49.758;6.120;2022-08-19T13:57:50;4.27;;;0.73;;
7971;SDS011;4031;49.758;6.120;2022-08-19T14:00:20;1.00;;;0.77;;
7971;SDS011;4031;49.758;6.120;2022-08-19T14:02:50;1.27;;;1.10;;
7971;SDS011;4031;49.758;6.120;2022-08-19T14:05:18;1.30;;;1.10;;
7971;SDS011;4031;49.758;6.120;2022-08-19T14:07:45;1.20;;;0.80;;
7971;SDS011;4031;49.758;6.120;2022-08-19T14:10:12;1.00;;;0.70;;
7971;SDS011;4031;49.758;6.120;2022-08-19T14:12:38;1.40;;;0.73;;
7971;SDS011;4031;49.758;6.120;2022-08-19T14:15:06;1.20;;;0.80;;
7971;SDS011;4031;49.758;6.120;2022-08-19T14:17:34;2.10;;;0.80;;
7971;SDS011;4031;49.758;6.120;2022-08-19T14:20:06;1.37;;;1.13;;
7971;SDS011;4031;49.758;6.120;2022-08-19T14:22:34;1.37;;;0.90;;
7971;SDS011;4031;49.758;6.120;2022-08-19T14:25:02;1.20;;;0.80;;
7971;SDS011;4031;49.758;6.120;2022-08-19T14:27:32;1.00;;;0.70;;
7971;SDS011;4031;49.758;6.120;2022-08-19T14:30:03;1.10;;;0.73;;
7971;SDS011;4031;49.758;6.120;2022-08-19T14:32:31;1.10;;;0.73;;
7971;SDS011;4031;49.758;6.120;2022-08-19T14:34:59;1.77;;;0.80;;
7971;SDS011;4031;49.758;6.120;2022-08-19T14:37:24;1.33;;;0.50;;
7971;SDS011;4031;49.758;6.120;2022-08-19T14:39:50;1.20;;;0.70;;
7971;SDS011;4031;49.758;6.120;2022-08-19T14:42:16;1.47;;;0.60;;
7971;SDS011;4031;49.758;6.120;2022-08-19T14:44:42;0.80;;;0.50;;
7971;SDS011;4031;49.758;6.120;2022-08-19T14:47:09;2.13;;;0.67;;
7971;SDS011;4031;49.758;6.120;2022-08-19T14:49:35;0.83;;;0.60;;
7971;SDS011;4031;49.758;6.120;2022-08-19T14:52:01;0.87;;;0.50;;
7971;SDS011;4031;49.758;6.120;2022-08-19T14:54:28;0.73;;;0.50;;
7971;SDS011;4031;49.758;6.120;2022-08-19T14:56:54;0.77;;;0.50;;
7971;SDS011;4031;49.758;6.120;2022-08-19T14:59:19;1.40;;;0.67;;
7971;SDS011;4031;49.758;6.120;2022-08-19T15:01:46;0.90;;;0.50;;
7971;SDS011;4031;49.758;6.120;2022-08-19T15:04:11;0.80;;;0.40;;
7971;SDS011;4031;49.758;6.120;2022-08-19T15:06:37;0.90;;;0.40;;
7971;SDS011;4031;49.758;6.120;2022-08-19T15:09:03;1.20;;;0.80;;
7971;SDS011;4031;49.758;6.120;2022-08-19T15:11:30;0.80;;;0.50;;
7971;SDS011;4031;49.758;6.120;2022-08-19T15:13:57;1.10;;;0.70;;
7971;SDS011;4031;49.758;6.120;2022-08-19T15:16:24;0.90;;;0.77;;
7971;SDS011;4031;49.758;6.120;2022-08-19T15:18:52;0.77;;;0.60;;
7971;SDS011;4031;49.758;6.120;2022-08-19T15:21:21;0.90;;;0.60;;